Samus Swan — 9HA2333 — position and weather

sailwx.info

Track history (hours):
 
Tides and Currents Weather Stations Pressure Air Temp Water Temp Dewpoint Dewpoint Depression Visibility Wind Speed Wind Dir Waves Ship Positions

Samus Swan

Last reported at 2017-Oct-21 22:18 UTC. Time now 2017-Oct-22 21:12 UTC.
Position N 40°45' E 027°34'.

Length 106 m; draft 5 m.

Type: Ship. MMSI: 248363000.

Date/timePositionNaut miles runAvg speedWind from/ knotsBaromVisibWave heightAir tempDewpointWater temp
2017-Oct-21 22:18N 40°45' E 027°34'2712.6
2017-Oct-21 20:11N 40°50' E 028°08'212.9
2017-Oct-21 20:00N 40°50' E 028°11'712.9
2017-Oct-21 19:29N 40°51' E 028°20'712.6
2017-Oct-21 18:58N 40°52' E 028°28'612.3
2017-Oct-21 18:28N 40°53' E 028°36'612.5
2017-Oct-21 18:00N 40°54' E 028°44'612.0
2017-Oct-21 17:29N 40°56' E 028°52'0 1.0
2017-Oct-21 17:00N 40°56' E 028°52'0 0.0
2017-Oct-21 16:30N 40°56' E 028°52'0 0.0
2017-Oct-21 16:00N 40°56' E 028°52'0 0.0
2017-Oct-21 15:12N 40°56' E 028°52'8 1.0
2017-Oct-21 07:24N 40°52' E 029°01'712.6
2017-Oct-21 06:53N 40°48' E 029°08'513.0
2017-Oct-21 06:30N 40°46' E 029°14'712.3
2017-Oct-21 05:57N 40°44' E 029°23'  
2017-Oct-18 12:52N 40°44' E 029°20'412.0
2017-Oct-18 12:30N 40°43' E 029°14'14510.7
2017-Oct-17 22:54N 40°01' E 026°12'371 8.9
2017-Oct-16 05:23N 36°24' E 019°50'1211.6
2017-Oct-16 04:21N 36°23' E 019°35'23111.1
2017-Oct-15 07:30N 36°29' E 014°48'511.0
2017-Oct-15 07:00N 36°29' E 014°41'611.2
2017-Oct-15 06:30N 36°29' E 014°34'611.4
2017-Oct-15 06:00N 36°32' E 014°28'611.8
2017-Oct-15 05:30N 36°35' E 014°22'714.2
2017-Oct-15 05:00N 36°38' E 014°14'714.0
2017-Oct-15 04:30N 36°41' E 014°06'713.7
2017-Oct-15 04:00N 36°45' E 013°59'713.7
2017-Oct-15 03:28N 36°48' E 013°51'1613.6
2017-Oct-15 02:17N 36°57' E 013°33'1213.5
2017-Oct-15 01:25N 37°02' E 013°21'613.2
2017-Oct-15 01:00N 37°05' E 013°15'713.1
2017-Oct-15 00:29N 37°08' E 013°07'713.0
2017-Oct-14 23:59N 37°12' E 012°60'49811.9
2017-Oct-13 06:03N 40°26' E 003°12'511.1
2017-Oct-13 05:35N 40°28' E 003°05'211.0
2017-Oct-13 05:26N 40°29' E 003°03'  
Track history (hours):
 
Tides and Currents Weather Stations Pressure Air Temp Water Temp Dewpoint Dewpoint Depression Visibility Wind Speed Wind Dir Waves Ship Positions

Samus Swan

Last reported at 2017-Oct-21 22:18 UTC. Time now 2017-Oct-22 21:12 UTC.
Position N 40°45' E 027°34'.

Length 106 m; draft 5 m.

Type: Ship. MMSI: 248363000.

Date/timePositionNaut miles runAvg speedWind from/ knotsBaromVisibWave heightAir tempDewpointWater temp
2017-Oct-21 22:18N 40°45' E 027°34'2712.6
2017-Oct-21 20:11N 40°50' E 028°08'212.9
2017-Oct-21 20:00N 40°50' E 028°11'712.9
2017-Oct-21 19:29N 40°51' E 028°20'712.6
2017-Oct-21 18:58N 40°52' E 028°28'612.3
2017-Oct-21 18:28N 40°53' E 028°36'612.5
2017-Oct-21 18:00N 40°54' E 028°44'612.0
2017-Oct-21 17:29N 40°56' E 028°52'0 1.0
2017-Oct-21 17:00N 40°56' E 028°52'0 0.0
2017-Oct-21 16:30N 40°56' E 028°52'0 0.0
2017-Oct-21 16:00N 40°56' E 028°52'0 0.0
2017-Oct-21 15:12N 40°56' E 028°52'8 1.0
2017-Oct-21 07:24N 40°52' E 029°01'712.6
2017-Oct-21 06:53N 40°48' E 029°08'513.0
2017-Oct-21 06:30N 40°46' E 029°14'712.3
2017-Oct-21 05:57N 40°44' E 029°23'  
2017-Oct-18 12:52N 40°44' E 029°20'412.0
2017-Oct-18 12:30N 40°43' E 029°14'14510.7
2017-Oct-17 22:54N 40°01' E 026°12'371 8.9
2017-Oct-16 05:23N 36°24' E 019°50'1211.6
2017-Oct-16 04:21N 36°23' E 019°35'23111.1
2017-Oct-15 07:30N 36°29' E 014°48'511.0
2017-Oct-15 07:00N 36°29' E 014°41'611.2
2017-Oct-15 06:30N 36°29' E 014°34'611.4
2017-Oct-15 06:00N 36°32' E 014°28'611.8
2017-Oct-15 05:30N 36°35' E 014°22'714.2
2017-Oct-15 05:00N 36°38' E 014°14'714.0
2017-Oct-15 04:30N 36°41' E 014°06'713.7
2017-Oct-15 04:00N 36°45' E 013°59'713.7
2017-Oct-15 03:28N 36°48' E 013°51'1613.6
2017-Oct-15 02:17N 36°57' E 013°33'1213.5
2017-Oct-15 01:25N 37°02' E 013°21'613.2
2017-Oct-15 01:00N 37°05' E 013°15'713.1
2017-Oct-15 00:29N 37°08' E 013°07'713.0
2017-Oct-14 23:59N 37°12' E 012°60'49811.9
2017-Oct-13 06:03N 40°26' E 003°12'511.1
2017-Oct-13 05:35N 40°28' E 003°05'211.0
2017-Oct-13 05:26N 40°29' E 003°03'  

Dump ship's entire track history